createdAt,value
2023-04-15T00:00:10.637Z,17.90
2023-04-15T00:02:39.482Z,17.90
2023-04-15T00:05:10.380Z,19.30
2023-04-15T00:07:39.132Z,20.87
2023-04-15T00:10:09.409Z,19.77
2023-04-15T00:12:38.190Z,18.63
2023-04-15T00:15:08.684Z,16.70
2023-04-15T00:17:39.241Z,18.97
2023-04-15T00:20:10.571Z,18.87
2023-04-15T00:22:39.359Z,18.57
2023-04-15T00:25:08.353Z,17.87
2023-04-15T00:27:37.003Z,17.03
2023-04-15T00:30:06.301Z,17.60
2023-04-15T00:32:35.146Z,17.20
2023-04-15T00:35:04.371Z,17.67
2023-04-15T00:37:35.366Z,17.63
2023-04-15T00:40:06.071Z,17.33
2023-04-15T00:42:36.341Z,18.20
2023-04-15T00:45:05.717Z,17.60
2023-04-15T00:47:37.428Z,18.53
2023-04-15T00:50:06.703Z,17.90
2023-04-15T00:52:36.841Z,17.53
2023-04-15T00:55:06.639Z,17.23
2023-04-15T00:57:35.540Z,18.00
2023-04-15T01:00:04.921Z,18.53
2023-04-15T01:02:34.054Z,17.60
2023-04-15T01:05:02.915Z,17.03
2023-04-15T01:07:32.134Z,18.23
2023-04-15T01:10:02.476Z,15.63
2023-04-15T01:12:34.523Z,16.03
2023-04-15T01:15:03.931Z,16.57
2023-04-15T01:17:32.966Z,17.63
2023-04-15T01:20:01.828Z,16.03
2023-04-15T01:22:30.786Z,16.47
2023-04-15T01:25:08.432Z,16.10
2023-04-15T01:27:41.381Z,16.10
2023-04-15T01:30:11.800Z,15.50
2023-04-15T01:32:40.541Z,16.57
2023-04-15T01:35:10.079Z,15.90
2023-04-15T01:37:39.066Z,16.23
2023-04-15T01:40:09.079Z,16.80
2023-04-15T01:42:39.728Z,15.17
2023-04-15T01:45:09.689Z,14.70
2023-04-15T01:47:38.407Z,15.60
2023-04-15T01:50:08.706Z,15.77
2023-04-15T01:52:37.767Z,16.70
2023-04-15T01:55:08.282Z,16.10
2023-04-15T01:57:38.458Z,16.07
2023-04-15T02:00:08.570Z,16.97
2023-04-15T02:02:37.328Z,16.63
2023-04-15T02:05:06.973Z,15.47
2023-04-15T02:07:35.927Z,17.17
2023-04-15T02:10:04.811Z,15.17
2023-04-15T02:12:33.426Z,15.20
2023-04-15T02:15:03.516Z,14.47
2023-04-15T02:17:32.414Z,16.10
2023-04-15T02:20:01.144Z,19.70
2023-04-15T02:22:30.503Z,15.73
2023-04-15T02:24:59.372Z,15.33
2023-04-15T02:27:29.108Z,15.60
2023-04-15T02:29:57.826Z,16.53
2023-04-15T02:32:29.152Z,19.33
2023-04-15T02:34:57.923Z,18.07
2023-04-15T02:37:28.043Z,18.23
2023-04-15T02:39:56.686Z,18.40
2023-04-15T02:42:27.840Z,18.17
2023-04-15T02:44:56.635Z,18.07
2023-04-15T02:47:25.362Z,17.13
2023-04-15T02:49:55.728Z,18.80
2023-04-15T02:52:24.885Z,18.77
2023-04-15T02:54:54.099Z,18.83
2023-04-15T02:57:22.824Z,19.20
2023-04-15T02:59:51.483Z,19.23
2023-04-15T03:02:20.325Z,18.97
2023-04-15T03:04:49.094Z,18.67
2023-04-15T03:07:19.542Z,18.77
2023-04-15T03:09:48.389Z,19.50
2023-04-15T03:12:17.070Z,19.20
2023-04-15T03:14:45.823Z,19.20
2023-04-15T03:17:14.458Z,19.27
2023-04-15T03:19:43.110Z,19.23
2023-04-15T03:22:11.884Z,22.40
2023-04-15T03:24:41.997Z,20.03
2023-04-15T03:27:10.718Z,21.03
2023-04-15T03:29:39.385Z,21.73
2023-04-15T03:32:08.135Z,20.60
2023-04-15T03:34:36.814Z,21.40
2023-04-15T03:37:05.548Z,22.30
2023-04-15T03:39:34.283Z,21.57
2023-04-15T03:42:05.025Z,22.63
2023-04-15T03:44:33.849Z,21.43
2023-04-15T03:47:02.622Z,21.37
2023-04-15T03:49:31.383Z,20.30
2023-04-15T03:52:00.189Z,22.07
2023-04-15T03:54:29.254Z,20.20
2023-04-15T03:56:58.210Z,19.90
2023-04-15T03:59:28.480Z,20.63
2023-04-15T04:01:57.616Z,19.83
2023-04-15T04:04:26.468Z,21.43
2023-04-15T04:06:55.241Z,18.07
2023-04-15T04:09:23.919Z,21.20
2023-04-15T04:11:52.564Z,18.90
2023-04-15T04:14:21.324Z,20.10
2023-04-15T04:16:51.577Z,19.80
2023-04-15T04:19:20.557Z,19.73
2023-04-15T04:21:49.262Z,20.90
2023-04-15T04:24:18.069Z,19.30
2023-04-15T04:26:46.758Z,22.67
2023-04-15T04:29:15.525Z,19.20
2023-04-15T04:31:44.312Z,19.47
2023-04-15T04:34:14.479Z,15.80
2023-04-15T04:36:43.250Z,13.77
2023-04-15T04:39:11.985Z,14.20
2023-04-15T04:41:40.701Z,12.47
2023-04-15T04:44:09.407Z,11.03
2023-04-15T04:46:38.039Z,10.00
2023-04-15T04:49:07.181Z,10.20
2023-04-15T04:51:37.610Z,10.90
2023-04-15T04:54:06.428Z,11.40
2023-04-15T04:56:35.903Z,10.40
2023-04-15T04:59:04.640Z,9.80
2023-04-15T05:01:33.454Z,9.10
2023-04-15T05:04:02.474Z,9.47
2023-04-15T05:06:31.775Z,9.03
2023-04-15T05:09:02.423Z,8.13
2023-04-15T05:11:31.683Z,8.30
2023-04-15T05:14:02.477Z,8.90
2023-04-15T05:16:31.232Z,8.67
2023-04-15T05:19:00.152Z,8.77
2023-04-15T05:21:29.288Z,10.30
2023-04-15T05:23:57.988Z,10.20
2023-04-15T05:26:28.470Z,8.83
2023-04-15T05:28:57.178Z,8.13
2023-04-15T05:31:25.949Z,8.87
2023-04-15T05:33:54.784Z,9.37
2023-04-15T05:36:23.512Z,9.30
2023-04-15T05:38:52.237Z,8.40
2023-04-15T05:41:21.192Z,8.33
2023-04-15T05:43:51.382Z,7.57
2023-04-15T05:46:20.087Z,7.87
2023-04-15T05:48:48.830Z,6.87
2023-04-15T05:51:17.594Z,6.80
2023-04-15T05:53:46.788Z,4.37
2023-04-15T05:56:15.478Z,4.17
2023-04-15T05:58:44.204Z,3.03
2023-04-15T06:01:14.360Z,2.97
2023-04-15T06:03:43.254Z,3.43
2023-04-15T06:06:12.151Z,2.47
2023-04-15T06:08:40.816Z,3.57
2023-04-15T06:11:09.619Z,2.27
2023-04-15T06:13:38.276Z,1.90
2023-04-15T06:16:08.173Z,2.70
2023-04-15T06:18:38.359Z,3.07
2023-04-15T06:21:07.279Z,2.53
2023-04-15T06:23:37.175Z,2.90
2023-04-15T06:26:06.070Z,2.23
2023-04-15T06:28:34.797Z,3.23
2023-04-15T06:31:03.574Z,2.50
2023-04-15T06:33:33.110Z,2.07
2023-04-15T06:36:03.322Z,2.20
2023-04-15T06:38:32.009Z,1.87
2023-04-15T06:41:00.763Z,4.10
2023-04-15T06:43:29.901Z,2.93
2023-04-15T06:45:58.640Z,1.97
2023-04-15T06:48:27.732Z,1.60
2023-04-15T06:50:56.819Z,2.40
2023-04-15T06:53:28.183Z,1.60
2023-04-15T06:55:57.154Z,1.70
2023-04-15T06:58:26.109Z,2.10
2023-04-15T07:00:54.951Z,1.63
2023-04-15T07:03:23.660Z,2.03
2023-04-15T07:05:52.862Z,1.30
2023-04-15T07:08:21.626Z,1.23
2023-04-15T07:10:52.041Z,1.80
2023-04-15T07:13:20.951Z,1.67
2023-04-15T07:15:49.702Z,1.40
2023-04-15T07:18:18.669Z,1.80
2023-04-15T07:20:47.459Z,4.70
2023-04-15T07:23:16.570Z,1.70
2023-04-15T07:25:45.474Z,2.20
2023-04-15T07:28:15.927Z,1.57
2023-04-15T07:30:44.789Z,2.00
2023-04-15T07:33:14.111Z,3.70
2023-04-15T07:35:43.030Z,2.43
2023-04-15T07:38:13.024Z,1.87
2023-04-15T07:40:42.593Z,2.17
2023-04-15T07:43:11.391Z,1.60
2023-04-15T07:45:41.520Z,1.30
2023-04-15T07:48:10.394Z,1.73
2023-04-15T07:50:39.230Z,1.30
2023-04-15T07:53:09.699Z,1.17
2023-04-15T07:55:38.561Z,1.60
2023-04-15T07:58:07.357Z,1.10
2023-04-15T08:00:36.349Z,1.73
2023-04-15T08:03:07.194Z,1.73
2023-04-15T08:05:36.138Z,1.83
2023-04-15T08:08:05.238Z,1.23
2023-04-15T08:10:34.016Z,1.60
2023-04-15T08:13:02.831Z,1.50
2023-04-15T08:15:33.138Z,1.53
2023-04-15T08:18:02.122Z,10.77
2023-04-15T08:20:32.990Z,1.57
2023-04-15T08:23:02.332Z,1.00
2023-04-15T08:25:31.074Z,1.20
2023-04-15T08:28:00.778Z,0.93
2023-04-15T08:30:29.623Z,1.20
2023-04-15T08:33:00.686Z,1.57
2023-04-15T08:35:29.452Z,1.00
2023-04-15T08:37:59.585Z,1.10
2023-04-15T08:40:37.821Z,0.67
2023-04-15T08:43:08.543Z,0.80
2023-04-15T08:45:40.070Z,0.60
2023-04-15T08:48:11.625Z,1.37
2023-04-15T08:50:40.682Z,1.10
2023-04-15T08:53:11.203Z,0.97
2023-04-15T08:55:44.897Z,1.00
2023-04-15T08:58:14.770Z,0.90
2023-04-15T09:00:43.829Z,0.60
2023-04-15T09:03:13.188Z,0.60
2023-04-15T09:05:42.655Z,0.70
2023-04-15T09:08:13.076Z,0.87
2023-04-15T09:10:41.851Z,0.70
2023-04-15T09:13:10.826Z,0.87
2023-04-15T09:15:40.752Z,3.70
2023-04-15T09:18:09.525Z,0.77
2023-04-15T09:20:42.674Z,0.73
2023-04-15T09:23:17.820Z,0.77
2023-04-15T09:25:47.394Z,1.00
2023-04-15T09:28:16.376Z,1.43
2023-04-15T09:30:46.910Z,0.80
2023-04-15T09:33:16.862Z,0.83
2023-04-15T09:35:59.938Z,0.60
2023-04-15T09:38:30.394Z,0.70
2023-04-15T09:41:00.390Z,0.90
2023-04-15T09:43:44.025Z,1.33
2023-04-15T09:46:12.917Z,0.70
2023-04-15T09:48:41.904Z,0.80
2023-04-15T09:51:10.855Z,0.50
2023-04-15T09:53:41.597Z,0.83
2023-04-15T09:56:11.251Z,0.80
2023-04-15T09:58:41.976Z,0.70
2023-04-15T10:01:12.032Z,1.27
2023-04-15T10:03:44.000Z,0.90
2023-04-15T10:06:13.523Z,1.30
2023-04-15T10:08:44.112Z,0.90
2023-04-15T10:11:14.476Z,0.87
2023-04-15T10:13:43.751Z,0.90
2023-04-15T10:16:14.238Z,0.70
2023-04-15T10:18:45.484Z,0.70
2023-04-15T10:21:18.861Z,0.73
2023-04-15T10:23:50.463Z,0.50
2023-04-15T10:26:19.564Z,0.70
2023-04-15T10:28:49.219Z,0.70
2023-04-15T10:31:20.361Z,2.07
2023-04-15T10:33:50.043Z,2.70
2023-04-15T10:36:20.779Z,0.57
2023-04-15T10:38:51.157Z,3.80
2023-04-15T10:41:24.010Z,0.50
2023-04-15T10:43:54.209Z,0.70
2023-04-15T10:46:36.951Z,0.70
2023-04-15T10:49:11.182Z,0.83
2023-04-15T10:51:42.941Z,0.50
2023-04-15T10:54:18.244Z,0.60
2023-04-15T10:56:52.330Z,0.50
2023-04-15T10:59:22.346Z,0.57
2023-04-15T11:01:56.843Z,0.60
2023-04-15T11:04:52.855Z,0.60
2023-04-15T11:07:40.423Z,0.70
2023-04-15T11:10:56.617Z,0.70
2023-04-15T11:13:29.585Z,0.70
2023-04-15T11:16:03.671Z,0.57
2023-04-15T11:18:34.377Z,0.40
2023-04-15T11:21:05.791Z,1.37
2023-04-15T11:23:37.251Z,0.50
2023-04-15T11:26:09.857Z,0.60
2023-04-15T11:28:41.656Z,0.67
2023-04-15T11:31:12.932Z,0.60
2023-04-15T11:33:48.983Z,0.80
2023-04-15T11:36:18.060Z,0.80
2023-04-15T11:38:48.762Z,1.07
2023-04-15T11:41:21.741Z,0.80
2023-04-15T11:43:52.120Z,0.80
2023-04-15T11:46:23.306Z,0.87
2023-04-15T11:48:52.789Z,0.93
2023-04-15T11:51:22.992Z,0.60
2023-04-15T11:53:52.807Z,0.67
2023-04-15T11:56:23.963Z,0.83
2023-04-15T11:58:57.390Z,0.70
2023-04-15T12:01:33.691Z,0.83
2023-04-15T12:04:04.593Z,1.57
2023-04-15T12:06:37.292Z,0.70
2023-04-15T12:09:10.856Z,1.20
2023-04-15T12:11:42.279Z,0.70
2023-04-15T12:14:24.364Z,0.80
2023-04-15T12:16:55.351Z,0.80
2023-04-15T12:19:28.883Z,0.90
2023-04-15T12:22:01.551Z,1.30
2023-04-15T12:24:33.318Z,0.93
2023-04-15T12:27:05.324Z,1.47
2023-04-15T12:29:36.883Z,1.50
2023-04-15T12:32:09.995Z,1.03
2023-04-15T12:34:41.002Z,0.77
2023-04-15T12:37:11.161Z,1.17
2023-04-15T12:39:40.953Z,1.00
2023-04-15T12:42:10.348Z,1.27
2023-04-15T12:44:41.432Z,0.87
2023-04-15T12:47:11.065Z,1.20
2023-04-15T12:49:40.308Z,1.87
2023-04-15T12:52:09.638Z,1.53
2023-04-15T12:54:38.333Z,1.07
2023-04-15T12:57:07.876Z,2.97
2023-04-15T12:59:37.004Z,2.30
2023-04-15T13:02:07.682Z,9.90
2023-04-15T13:04:36.501Z,2.20
2023-04-15T13:07:05.398Z,1.03
2023-04-15T13:09:34.177Z,0.90
2023-04-15T13:12:04.916Z,1.80
2023-04-15T13:14:34.055Z,1.00
2023-04-15T13:17:04.626Z,0.73
2023-04-15T13:19:36.927Z,0.93
2023-04-15T13:22:05.679Z,1.27
2023-04-15T13:24:34.534Z,1.70
2023-04-15T13:27:04.573Z,1.47
2023-04-15T13:29:33.378Z,1.17
2023-04-15T13:32:02.412Z,1.20
2023-04-15T13:34:31.428Z,0.93
2023-04-15T13:37:07.285Z,1.10
2023-04-15T13:39:36.004Z,3.20
2023-04-15T13:42:04.861Z,1.60
2023-04-15T13:44:33.729Z,1.13
2023-04-15T13:47:02.638Z,13.20
2023-04-15T13:49:31.567Z,1.27
2023-04-15T13:52:02.019Z,2.87
2023-04-15T13:54:37.405Z,1.80
2023-04-15T13:57:07.517Z,6.67
2023-04-15T13:59:36.469Z,3.70
2023-04-15T14:02:05.454Z,2.00
2023-04-15T14:04:34.663Z,2.20
2023-04-15T14:07:05.640Z,1.23
2023-04-15T14:09:35.447Z,0.90
2023-04-15T14:12:04.794Z,1.37
2023-04-15T14:14:34.033Z,1.27
2023-04-15T14:17:03.993Z,1.27
2023-04-15T14:19:33.279Z,4.47
2023-04-15T14:22:03.935Z,1.23
2023-04-15T14:24:33.091Z,1.87
2023-04-15T14:27:02.399Z,3.80
2023-04-15T14:29:31.547Z,5.90
2023-04-15T14:32:07.100Z,15.20
2023-04-15T14:34:42.312Z,1.90
2023-04-15T14:37:12.827Z,1.80
2023-04-15T14:39:42.334Z,1.60
2023-04-15T14:42:11.217Z,5.00
2023-04-15T14:44:40.200Z,4.53
2023-04-15T14:47:09.125Z,3.70
2023-04-15T14:49:38.093Z,2.00
2023-04-15T14:52:07.252Z,1.63
2023-04-15T14:54:37.914Z,1.40
2023-04-15T14:57:07.906Z,1.70
2023-04-15T14:59:37.052Z,15.57
2023-04-15T15:02:06.642Z,6.13
2023-04-15T15:04:36.489Z,2.67
2023-04-15T15:07:06.144Z,2.60
2023-04-15T15:09:37.123Z,1.43
2023-04-15T15:12:06.485Z,4.83
2023-04-15T15:14:35.911Z,1.90
2023-04-15T15:17:04.865Z,2.77
2023-04-15T15:19:33.974Z,2.30
2023-04-15T15:22:03.188Z,1.37
2023-04-15T15:24:32.209Z,1.10
2023-04-15T15:27:02.516Z,2.00
2023-04-15T15:29:31.355Z,2.00
2023-04-15T15:32:00.884Z,1.80
2023-04-15T15:34:29.776Z,1.20
2023-04-15T15:36:58.798Z,10.93
2023-04-15T15:39:27.863Z,1.60
2023-04-15T15:41:57.184Z,1.80
2023-04-15T15:44:27.562Z,1.90
2023-04-15T15:46:56.675Z,1.67
2023-04-15T15:49:26.491Z,1.90
2023-04-15T15:51:55.664Z,1.40
2023-04-15T15:54:24.752Z,1.50
2023-04-15T15:56:53.590Z,1.27
2023-04-15T15:59:22.420Z,1.90
2023-04-15T16:01:53.291Z,1.13
2023-04-15T16:04:22.682Z,1.60
2023-04-15T16:06:51.975Z,1.43
2023-04-15T16:09:20.926Z,2.60
2023-04-15T16:11:50.067Z,2.20
2023-04-15T16:14:19.032Z,4.20
2023-04-15T16:16:48.059Z,9.43
2023-04-15T16:19:18.680Z,3.40
2023-04-15T16:21:48.113Z,2.20
2023-04-15T16:24:17.563Z,2.13
2023-04-15T16:26:46.538Z,2.67
2023-04-15T16:29:16.041Z,2.70
2023-04-15T16:31:45.200Z,1.90
2023-04-15T16:34:16.487Z,4.50
2023-04-15T16:36:47.891Z,1.80
2023-04-15T16:39:17.399Z,2.20
2023-04-15T16:41:46.356Z,2.40
2023-04-15T16:44:15.874Z,2.30
2023-04-15T16:46:44.990Z,1.80
2023-04-15T16:49:13.836Z,2.07
2023-04-15T16:51:42.694Z,2.77
2023-04-15T16:54:14.058Z,4.57
2023-04-15T16:56:43.554Z,2.80
2023-04-15T16:59:12.961Z,2.83
2023-04-15T17:01:42.311Z,2.00
2023-04-15T17:04:11.161Z,2.47
2023-04-15T17:06:40.948Z,2.90
2023-04-15T17:09:09.990Z,4.37
2023-04-15T17:11:43.462Z,7.50
2023-04-15T17:14:13.241Z,5.17
2023-04-15T17:16:43.515Z,4.27
2023-04-15T17:19:12.893Z,4.10
2023-04-15T17:21:42.227Z,4.37
2023-04-15T17:24:11.602Z,4.10
2023-04-15T17:26:42.067Z,4.33
2023-04-15T17:29:11.462Z,7.90
2023-04-15T17:31:40.846Z,8.43
2023-04-15T17:34:11.322Z,5.67
2023-04-15T17:36:42.072Z,3.70
2023-04-15T17:39:12.102Z,3.43
2023-04-15T17:41:42.876Z,3.80
2023-04-15T17:44:12.598Z,9.30
2023-04-15T17:46:42.193Z,8.80
2023-04-15T17:49:12.385Z,8.30
2023-04-15T17:51:41.342Z,4.83
2023-04-15T17:54:11.363Z,4.50
2023-04-15T17:56:42.068Z,10.43
2023-04-15T17:59:11.952Z,8.87
2023-04-15T18:01:42.699Z,11.77
2023-04-15T18:04:12.696Z,8.17
2023-04-15T18:06:43.099Z,7.90
2023-04-15T18:09:13.426Z,8.40
2023-04-15T18:11:46.025Z,8.60
2023-04-15T18:14:32.948Z,9.77
2023-04-15T18:17:04.637Z,9.47
2023-04-15T18:19:33.944Z,10.07
2023-04-15T18:22:04.774Z,11.43
2023-04-15T18:24:42.047Z,10.13
2023-04-15T18:27:14.089Z,17.63
2023-04-15T18:29:44.389Z,15.33
2023-04-15T18:32:14.691Z,25.97
2023-04-15T18:34:46.098Z,24.23
2023-04-15T18:37:15.210Z,18.73
2023-04-15T18:39:45.482Z,15.70
2023-04-15T18:42:17.336Z,29.20
2023-04-15T18:44:47.259Z,36.60
2023-04-15T18:47:17.789Z,22.70
2023-04-15T18:49:47.864Z,18.70
2023-04-15T18:52:17.553Z,19.60
2023-04-15T18:54:47.220Z,20.10
2023-04-15T18:57:20.463Z,17.47
2023-04-15T18:59:53.539Z,15.63
2023-04-15T19:02:24.263Z,16.17
2023-04-15T19:04:56.265Z,17.87
2023-04-15T19:07:26.222Z,16.67
2023-04-15T19:09:59.578Z,18.17
2023-04-15T19:12:30.368Z,19.40
2023-04-15T19:14:59.359Z,16.10
2023-04-15T19:17:29.801Z,15.77
2023-04-15T19:20:14.945Z,15.87
2023-04-15T19:22:46.998Z,16.20
2023-04-15T19:25:18.220Z,15.83
2023-04-15T19:27:49.840Z,16.50
2023-04-15T19:30:22.238Z,17.80
2023-04-15T19:32:56.312Z,16.53
2023-04-15T19:35:26.123Z,15.10
2023-04-15T19:37:56.261Z,17.53
2023-04-15T19:40:26.387Z,14.63
2023-04-15T19:42:58.112Z,14.60
2023-04-15T19:45:28.584Z,15.20
2023-04-15T19:47:59.333Z,15.40
2023-04-15T19:50:29.223Z,17.20
2023-04-15T19:53:00.233Z,15.70
2023-04-15T19:55:31.093Z,17.60
2023-04-15T19:58:05.625Z,17.53
2023-04-15T20:00:35.584Z,17.93
2023-04-15T20:03:06.593Z,17.53
2023-04-15T20:05:36.612Z,17.67
2023-04-15T20:08:07.160Z,20.70
2023-04-15T20:10:40.292Z,18.80
2023-04-15T20:13:12.667Z,19.43
2023-04-15T20:15:42.490Z,19.47
2023-04-15T20:18:18.587Z,20.07
2023-04-15T20:20:49.340Z,17.87
2023-04-15T20:23:19.025Z,20.47
2023-04-15T20:25:49.332Z,22.83
2023-04-15T20:28:20.643Z,22.53
2023-04-15T20:30:50.108Z,21.17
2023-04-15T20:33:19.337Z,19.10
2023-04-15T20:35:48.678Z,18.17
2023-04-15T20:38:18.839Z,18.53
2023-04-15T20:40:48.401Z,18.27
2023-04-15T20:43:19.650Z,19.77
2023-04-15T20:45:49.580Z,15.47
2023-04-15T20:48:19.583Z,18.43
2023-04-15T20:50:50.888Z,16.63
2023-04-15T20:53:19.929Z,17.37
2023-04-15T20:55:49.400Z,17.77
2023-04-15T20:58:19.542Z,18.27
2023-04-15T21:00:51.869Z,17.23
2023-04-15T21:03:22.974Z,17.07
2023-04-15T21:05:52.004Z,16.10
2023-04-15T21:08:29.284Z,16.03
2023-04-15T21:10:58.616Z,16.40
2023-04-15T21:13:28.909Z,16.50
2023-04-15T21:15:57.732Z,16.60
2023-04-15T21:18:26.528Z,15.63
2023-04-15T21:20:58.687Z,14.60
2023-04-15T21:23:28.862Z,14.50
2023-04-15T21:25:58.004Z,19.20
2023-04-15T21:28:28.793Z,16.47
2023-04-15T21:30:58.174Z,16.10
2023-04-15T21:33:27.440Z,18.43
2023-04-15T21:35:56.557Z,18.97
2023-04-15T21:38:25.226Z,19.73
2023-04-15T21:40:54.000Z,17.53
2023-04-15T21:43:25.280Z,19.40
2023-04-15T21:46:21.794Z,18.27
2023-04-15T21:48:44.602Z,20.00
2023-04-15T21:51:13.952Z,18.87
2023-04-15T21:53:42.764Z,20.30
2023-04-15T21:56:12.187Z,21.90
2023-04-15T21:58:40.918Z,21.80
2023-04-15T22:01:12.481Z,20.90
2023-04-15T22:03:41.646Z,19.97
2023-04-15T22:06:10.933Z,20.03
2023-04-15T22:08:52.417Z,20.90
2023-04-15T22:11:27.702Z,20.03
2023-04-15T22:13:57.473Z,19.47
2023-04-15T22:16:28.491Z,22.83
2023-04-15T22:18:57.760Z,20.83
2023-04-15T22:21:27.007Z,20.30
2023-04-15T22:24:32.593Z,19.93
2023-04-15T22:26:44.679Z,20.20
2023-04-15T22:29:13.819Z,21.60
2023-04-15T22:31:44.295Z,20.30
2023-04-15T22:34:15.182Z,20.93
2023-04-15T22:36:43.967Z,21.57
2023-04-15T22:39:12.969Z,22.13
2023-04-15T22:41:42.007Z,24.90
2023-04-15T22:44:10.885Z,24.73
2023-04-15T22:46:39.814Z,22.63
2023-04-15T22:49:11.089Z,22.40
2023-04-15T22:51:42.233Z,24.30
2023-04-15T22:54:11.084Z,25.50
2023-04-15T22:56:40.007Z,23.00
2023-04-15T22:59:08.941Z,28.87
2023-04-15T23:01:38.480Z,26.57
2023-04-15T23:04:23.356Z,25.33
2023-04-15T23:06:56.088Z,26.37
2023-04-15T23:09:24.872Z,27.73
2023-04-15T23:11:53.727Z,25.83
2023-04-15T23:14:22.579Z,26.47
2023-04-15T23:16:51.307Z,27.27
2023-04-15T23:19:20.146Z,25.73
2023-04-15T23:21:49.131Z,26.13
2023-04-15T23:24:19.547Z,27.57
2023-04-15T23:26:48.284Z,27.03
2023-04-15T23:29:17.049Z,29.53
2023-04-15T23:31:45.912Z,27.83
2023-04-15T23:34:14.662Z,28.33
2023-04-15T23:36:43.472Z,27.73
2023-04-15T23:39:12.274Z,29.90
2023-04-15T23:41:42.756Z,29.17
2023-04-15T23:44:11.702Z,30.50
2023-04-15T23:46:40.467Z,30.93
2023-04-15T23:49:09.668Z,30.27
2023-04-15T23:51:38.707Z,27.83
2023-04-15T23:54:07.585Z,32.73
2023-04-15T23:56:36.674Z,29.50
2023-04-15T23:59:06.990Z,28.40
